Flight Track Log - Related Links

Times and Time Zones

All times are in EDT time to prevent confusion due to time zone crossing. See the SKW5631 flight status page for this flight to view local times or setup timezone preferences in your user account.

Time Position Orientation Groundspeed Altitude Reporting Facility
EDT Latitude Longitude Course Direction KTS MPH feet Rate Location/Type
Tue 10:18:23 PM 37.6167 -122.3833 122° Southeast 144 166 800  Level Northern Cal TRACON
Tue 10:19:23 PM 37.6500 -122.4333 310° West 200 230 3,200 2,500 Climbing Northern Cal TRACON
Tue 10:20:23 PM 37.6667 -122.5167 284° West 239 275 5,800 2,850 Climbing Northern Cal TRACON
Tue 10:21:00 PM 37.2626 -122.1021 130° Southeast  Level FlightAware Approximate
Tue 10:21:23 PM 37.6167 -122.5667 218° Southwest 261 300 8,900  Level Northern Cal TRACON
Tue 10:22:00 PM 37.1587 -121.9671 133° Southeast  Level FlightAware Approximate
Tue 10:22:33 PM 37.5503 -122.5192 150° Southeast 284 327 10,800  Level Oakland Center
Tue 10:23:00 PM 37.0570 -121.8307 122° Southeast  Level FlightAware Approximate
Tue 10:23:35 PM 37.4667 -122.4258 138° Southeast 327 376 12,900  Level Oakland Center
Tue 10:24:36 PM 37.3894 -122.3392 138° Southeast 363 418 14,400 1,475 Climbing Oakland Center
Tue 10:25:37 PM 37.3094 -122.2500 138° Southeast 380 437 15,900 1,377 Climbing Oakland Center
Tue 10:26:38 PM 37.2264 -122.1589 139° Southeast 392 451 17,200 1,180 Climbing Oakland Center
Tue 10:27:39 PM 37.1411 -122.0636 138° Southeast 408 470 18,300 927 Climbing Oakland Center
Tue 10:28:41 PM 37.0525 -121.9653 138° Southeast 423 487 19,100 780 Climbing Oakland Center
Tue 10:29:42 PM 36.9614 -121.8636 138° Southeast 437 503 19,900 885 Climbing Oakland Center
Tue 10:30:43 PM 36.8661 -121.7617 139° Southeast 450 518 20,900 984 Climbing Oakland Center
Tue 10:31:44 PM 36.7578 -121.6419 138° Southeast 451 519 21,900 878 Climbing Oakland Center
Tue 10:32:46 PM 36.6625 -121.5367 138° Southeast 456 525 22,700 829 Climbing Oakland Center
Tue 10:33:47 PM 36.5667 -121.4311 138° Southeast 460 529 23,600 689 Climbing Oakland Center
Tue 10:34:48 PM 36.4697 -121.3264 139° Southeast 462 532 24,100 590 Climbing Oakland Center
Tue 10:35:49 PM 36.3728 -121.2219 139° Southeast 463 533 24,800 732 Climbing Oakland Center
Tue 10:36:51 PM 36.2769 -121.1164 138° Southeast 461 531 25,600 634 Climbing Oakland Center
Tue 10:37:52 PM 36.1794 -121.0133 140° Southeast 463 533 26,100 492 Climbing Oakland Center
Tue 10:38:53 PM 36.0803 -120.9069 139° Southeast 469 540 26,600 639 Climbing Oakland Center
Tue 10:39:54 PM 35.9617 -120.7797 139° Southeast 470 541 27,400 689 Climbing Oakland Center
Tue 10:40:55 PM 35.8631 -120.6742 139° Southeast 469 540 28,000 488 Climbing Oakland Center
Tue 10:41:57 PM 35.7642 -120.5697 139° Southeast 469 540 28,400 488 Climbing Oakland Center
Tue 10:42:58 PM 35.6636 -120.4631 139° Southeast 473 544 29,000 836 Climbing Oakland Center
Tue 10:43:59 PM 35.5642 -120.3569 139° Southeast 472 543 30,100 836 Climbing Oakland Center
Tue 10:45:00 PM 35.4625 -120.2514 140° Southeast 466 536 30,700 439 Climbing Oakland Center
Tue 10:46:02 PM 35.3631 -120.1447 139° Southeast 465 535 31,000 -646 Climbing Oakland Center
Tue 10:47:10 PM 35.2603 -120.0406 140° Southeast 474 545 29,300 -1,800 Descending Los Angeles Center
Tue 10:48:12 PM 35.1525 -119.9297 140° Southeast 499 574 27,100 -2,341 Descending Los Angeles Center
Tue 10:49:13 PM 35.0333 -119.7836 135° Southeast 507 583 24,500 -1,512 Descending Los Angeles Center
Tue 10:50:15 PM 34.9411 -119.6606 132° Southeast 495 570 24,000 -829 Descending Los Angeles Center
Tue 10:51:16 PM 34.8522 -119.5428 133° Southeast 479 551 22,800 -2,098 Descending Los Angeles Center
Tue 10:52:18 PM 34.7636 -119.4231 132° Southeast 476 548 19,700 -3,000 Descending Los Angeles Center
Tue 10:53:20 PM 34.6800 -119.3114 132° Southeast 456 525 16,600 -3,073 Descending Los Angeles Center
Tue 10:54:21 PM 34.5944 -119.1969 132° Southeast 430 495 13,400 -2,732 Descending Los Angeles Center
Tue 10:55:23 PM 34.5186 -119.0969 133° Southeast 405 466 11,000 -1,210 Descending Los Angeles Center
Tue 10:56:25 PM 34.4583 -119.0164 132° Southeast 317 365 10,900 -683 Descending Los Angeles Center
Tue 10:57:26 PM 34.4133 -118.9561 132° Southeast 303 349 9,600 -1,805 Descending Los Angeles Center
Tue 10:58:28 PM 34.3544 -118.8589 126° Southeast 292 336 7,200 -1,920 Descending Los Angeles Center
Tue 10:59:31 PM 34.2969 -118.7692 128° Southeast 281 323 5,600 -1,440 Descending Los Angeles Center
Tue 11:00:33 PM 34.2522 -118.6950 126° Southeast 274 315 4,200 -780 Descending Los Angeles Center
Tue 11:01:34 PM 34.2117 -118.6278 126° Southeast 256 295 4,000 -195 Descending Los Angeles Center
Tue 11:02:36 PM 34.2008 -118.5567 100° East 229 264 3,800 -532 Descending Los Angeles Center
Tue 11:03:38 PM 34.2000 -118.4950 91° East 203 234 2,900 -878 Descending Los Angeles Center
Tue 11:04:39 PM 34.1994 -118.4408 91° East 183 211 2,000 -878 Descending Los Angeles Center
Tue 11:05:41 PM 34.1983 -118.3931 92° East 165 190 1,100 -871 Descending Los Angeles Center

Login

Don't have an account? Register now (free) for customized features, flight alerts, and more!